sensor_id;sensor_type;location;lat;lon;timestamp;pressure;altitude;pressure_sealevel;temperature
12918;BMP180;6526;54.312;13.092;2023-06-10T00:01:56;102400.00;;;18.20
12918;BMP180;6526;54.312;13.092;2023-06-10T00:04:25;102394.00;;;18.20
12918;BMP180;6526;54.312;13.092;2023-06-10T00:06:51;102401.00;;;18.20
12918;BMP180;6526;54.312;13.092;2023-06-10T00:09:17;102398.00;;;18.20
12918;BMP180;6526;54.312;13.092;2023-06-10T00:11:44;102401.00;;;18.20
12918;BMP180;6526;54.312;13.092;2023-06-10T00:14:10;102395.00;;;18.30
12918;BMP180;6526;54.312;13.092;2023-06-10T00:16:36;102393.00;;;18.20
12918;BMP180;6526;54.312;13.092;2023-06-10T00:19:06;102391.00;;;18.10
12918;BMP180;6526;54.312;13.092;2023-06-10T00:21:33;102394.00;;;18.20
12918;BMP180;6526;54.312;13.092;2023-06-10T00:24:09;102398.00;;;18.20
12918;BMP180;6526;54.312;13.092;2023-06-10T00:26:41;102401.00;;;18.20
12918;BMP180;6526;54.312;13.092;2023-06-10T00:29:08;102405.00;;;18.20
12918;BMP180;6526;54.312;13.092;2023-06-10T00:31:35;102398.00;;;18.20
12918;BMP180;6526;54.312;13.092;2023-06-10T00:34:02;102401.00;;;18.30
12918;BMP180;6526;54.312;13.092;2023-06-10T00:36:28;102399.00;;;18.30
12918;BMP180;6526;54.312;13.092;2023-06-10T00:38:54;102398.00;;;18.30
12918;BMP180;6526;54.312;13.092;2023-06-10T00:41:20;102407.00;;;18.40
12918;BMP180;6526;54.312;13.092;2023-06-10T00:43:46;102395.00;;;18.30
12918;BMP180;6526;54.312;13.092;2023-06-10T00:46:12;102408.00;;;18.40
12918;BMP180;6526;54.312;13.092;2023-06-10T00:48:41;102400.00;;;18.40
12918;BMP180;6526;54.312;13.092;2023-06-10T00:51:08;102401.00;;;18.30
12918;BMP180;6526;54.312;13.092;2023-06-10T00:53:40;102402.00;;;18.30
12918;BMP180;6526;54.312;13.092;2023-06-10T00:56:06;102406.00;;;18.20
12918;BMP180;6526;54.312;13.092;2023-06-10T00:58:33;102415.00;;;18.30
12918;BMP180;6526;54.312;13.092;2023-06-10T01:00:59;102415.00;;;18.20
12918;BMP180;6526;54.312;13.092;2023-06-10T01:03:26;102410.00;;;18.30
12918;BMP180;6526;54.312;13.092;2023-06-10T01:06:17;102404.00;;;18.30
12918;BMP180;6526;54.312;13.092;2023-06-10T01:08:55;102407.00;;;18.30
12918;BMP180;6526;54.312;13.092;2023-06-10T01:11:28;102405.00;;;18.30
12918;BMP180;6526;54.312;13.092;2023-06-10T01:13:56;102407.00;;;18.30
12918;BMP180;6526;54.312;13.092;2023-06-10T01:16:24;102401.00;;;18.30
12918;BMP180;6526;54.312;13.092;2023-06-10T01:18:51;102401.00;;;18.30
12918;BMP180;6526;54.312;13.092;2023-06-10T01:21:24;102394.00;;;18.30
12918;BMP180;6526;54.312;13.092;2023-06-10T01:23:51;102402.00;;;18.30
12918;BMP180;6526;54.312;13.092;2023-06-10T01:26:20;102400.00;;;18.30
12918;BMP180;6526;54.312;13.092;2023-06-10T01:29:03;102400.00;;;18.30
12918;BMP180;6526;54.312;13.092;2023-06-10T01:34:12;102399.00;;;18.30
12918;BMP180;6526;54.312;13.092;2023-06-10T01:36:40;102398.00;;;18.20
12918;BMP180;6526;54.312;13.092;2023-06-10T01:39:08;102406.00;;;18.30
12918;BMP180;6526;54.312;13.092;2023-06-10T01:41:36;102400.00;;;18.30
12918;BMP180;6526;54.312;13.092;2023-06-10T01:44:03;102409.00;;;18.30
12918;BMP180;6526;54.312;13.092;2023-06-10T01:46:30;102408.00;;;18.30
12918;BMP180;6526;54.312;13.092;2023-06-10T01:48:56;102403.00;;;18.30
12918;BMP180;6526;54.312;13.092;2023-06-10T01:51:22;102399.00;;;18.30
12918;BMP180;6526;54.312;13.092;2023-06-10T01:53:48;102408.00;;;18.30
12918;BMP180;6526;54.312;13.092;2023-06-10T01:56:14;102400.00;;;18.40
12918;BMP180;6526;54.312;13.092;2023-06-10T01:58:43;102403.00;;;18.30
12918;BMP180;6526;54.312;13.092;2023-06-10T02:01:10;102401.00;;;18.30
12918;BMP180;6526;54.312;13.092;2023-06-10T02:03:36;102406.00;;;18.30
12918;BMP180;6526;54.312;13.092;2023-06-10T02:06:02;102393.00;;;18.30
12918;BMP180;6526;54.312;13.092;2023-06-10T02:08:28;102405.00;;;18.30
12918;BMP180;6526;54.312;13.092;2023-06-10T02:10:54;102398.00;;;18.30
12918;BMP180;6526;54.312;13.092;2023-06-10T02:13:20;102409.00;;;18.30
12918;BMP180;6526;54.312;13.092;2023-06-10T02:15:46;102405.00;;;18.30
12918;BMP180;6526;54.312;13.092;2023-06-10T02:18:12;102401.00;;;18.30
12918;BMP180;6526;54.312;13.092;2023-06-10T02:20:39;102408.00;;;18.30
12918;BMP180;6526;54.312;13.092;2023-06-10T02:23:05;102413.00;;;18.30
12918;BMP180;6526;54.312;13.092;2023-06-10T02:25:31;102406.00;;;18.30
12918;BMP180;6526;54.312;13.092;2023-06-10T02:27:57;102416.00;;;18.20
12918;BMP180;6526;54.312;13.092;2023-06-10T02:30:23;102412.00;;;18.30
12918;BMP180;6526;54.312;13.092;2023-06-10T02:32:49;102413.00;;;18.30
12918;BMP180;6526;54.312;13.092;2023-06-10T02:35:16;102417.00;;;18.40
12918;BMP180;6526;54.312;13.092;2023-06-10T02:37:43;102417.00;;;18.40
12918;BMP180;6526;54.312;13.092;2023-06-10T02:40:10;102404.00;;;18.40
12918;BMP180;6526;54.312;13.092;2023-06-10T02:42:36;102407.00;;;18.30
12918;BMP180;6526;54.312;13.092;2023-06-10T02:45:03;102412.00;;;18.30
12918;BMP180;6526;54.312;13.092;2023-06-10T02:47:29;102413.00;;;18.30
12918;BMP180;6526;54.312;13.092;2023-06-10T02:49:55;102416.00;;;18.30
12918;BMP180;6526;54.312;13.092;2023-06-10T02:52:21;102410.00;;;18.30
12918;BMP180;6526;54.312;13.092;2023-06-10T02:54:48;102402.00;;;18.30
12918;BMP180;6526;54.312;13.092;2023-06-10T02:57:14;102423.00;;;18.40
12918;BMP180;6526;54.312;13.092;2023-06-10T02:59:40;102417.00;;;18.30
12918;BMP180;6526;54.312;13.092;2023-06-10T03:02:07;102407.00;;;18.30
12918;BMP180;6526;54.312;13.092;2023-06-10T03:04:33;102401.00;;;18.30
12918;BMP180;6526;54.312;13.092;2023-06-10T03:06:59;102402.00;;;18.40
12918;BMP180;6526;54.312;13.092;2023-06-10T03:09:29;102394.00;;;18.40
12918;BMP180;6526;54.312;13.092;2023-06-10T03:11:55;102406.00;;;18.30
12918;BMP180;6526;54.312;13.092;2023-06-10T03:14:21;102410.00;;;18.40
12918;BMP180;6526;54.312;13.092;2023-06-10T03:16:47;102412.00;;;18.40
12918;BMP180;6526;54.312;13.092;2023-06-10T03:19:14;102417.00;;;18.40
12918;BMP180;6526;54.312;13.092;2023-06-10T03:21:43;102403.00;;;18.40
12918;BMP180;6526;54.312;13.092;2023-06-10T03:24:09;102413.00;;;18.40
12918;BMP180;6526;54.312;13.092;2023-06-10T03:26:36;102409.00;;;18.40
12918;BMP180;6526;54.312;13.092;2023-06-10T03:29:02;102401.00;;;18.40
12918;BMP180;6526;54.312;13.092;2023-06-10T03:31:28;102409.00;;;18.40
12918;BMP180;6526;54.312;13.092;2023-06-10T03:33:55;102406.00;;;18.40
12918;BMP180;6526;54.312;13.092;2023-06-10T03:36:21;102401.00;;;18.40
12918;BMP180;6526;54.312;13.092;2023-06-10T03:38:47;102401.00;;;18.40
12918;BMP180;6526;54.312;13.092;2023-06-10T03:41:13;102401.00;;;18.40
12918;BMP180;6526;54.312;13.092;2023-06-10T03:43:41;102409.00;;;18.40
12918;BMP180;6526;54.312;13.092;2023-06-10T03:46:07;102408.00;;;18.40
12918;BMP180;6526;54.312;13.092;2023-06-10T03:48:33;102410.00;;;18.40
12918;BMP180;6526;54.312;13.092;2023-06-10T03:51:00;102406.00;;;18.50
12918;BMP180;6526;54.312;13.092;2023-06-10T03:53:26;102409.00;;;18.50
12918;BMP180;6526;54.312;13.092;2023-06-10T03:55:52;102406.00;;;18.50
12918;BMP180;6526;54.312;13.092;2023-06-10T03:58:18;102417.00;;;18.50
12918;BMP180;6526;54.312;13.092;2023-06-10T04:00:44;102412.00;;;18.60
12918;BMP180;6526;54.312;13.092;2023-06-10T04:03:11;102410.00;;;18.60
12918;BMP180;6526;54.312;13.092;2023-06-10T04:05:40;102412.00;;;18.70
12918;BMP180;6526;54.312;13.092;2023-06-10T04:08:07;102409.00;;;18.80
12918;BMP180;6526;54.312;13.092;2023-06-10T04:10:33;102417.00;;;18.80
12918;BMP180;6526;54.312;13.092;2023-06-10T04:13:00;102411.00;;;18.80
12918;BMP180;6526;54.312;13.092;2023-06-10T04:15:26;102403.00;;;18.90
12918;BMP180;6526;54.312;13.092;2023-06-10T04:17:52;102416.00;;;18.90
12918;BMP180;6526;54.312;13.092;2023-06-10T04:20:18;102416.00;;;19.00
12918;BMP180;6526;54.312;13.092;2023-06-10T04:22:45;102425.00;;;19.00
12918;BMP180;6526;54.312;13.092;2023-06-10T04:25:11;102410.00;;;19.00
12918;BMP180;6526;54.312;13.092;2023-06-10T04:27:37;102412.00;;;19.10
12918;BMP180;6526;54.312;13.092;2023-06-10T04:30:04;102422.00;;;19.20
12918;BMP180;6526;54.312;13.092;2023-06-10T04:32:31;102420.00;;;19.10
12918;BMP180;6526;54.312;13.092;2023-06-10T04:34:57;102419.00;;;19.20
12918;BMP180;6526;54.312;13.092;2023-06-10T04:37:23;102417.00;;;19.20
12918;BMP180;6526;54.312;13.092;2023-06-10T04:39:49;102418.00;;;19.20
12918;BMP180;6526;54.312;13.092;2023-06-10T04:42:15;102419.00;;;19.20
12918;BMP180;6526;54.312;13.092;2023-06-10T04:44:41;102420.00;;;19.20
12918;BMP180;6526;54.312;13.092;2023-06-10T04:47:08;102423.00;;;19.30
12918;BMP180;6526;54.312;13.092;2023-06-10T04:49:34;102421.00;;;19.30
12918;BMP180;6526;54.312;13.092;2023-06-10T04:52:01;102417.00;;;19.40
12918;BMP180;6526;54.312;13.092;2023-06-10T04:54:30;102423.00;;;19.40
12918;BMP180;6526;54.312;13.092;2023-06-10T04:56:56;102421.00;;;19.50
12918;BMP180;6526;54.312;13.092;2023-06-10T04:59:22;102425.00;;;19.60
12918;BMP180;6526;54.312;13.092;2023-06-10T05:01:48;102438.00;;;19.60
12918;BMP180;6526;54.312;13.092;2023-06-10T05:04:14;102433.00;;;19.60
12918;BMP180;6526;54.312;13.092;2023-06-10T05:06:40;102419.00;;;19.60
12918;BMP180;6526;54.312;13.092;2023-06-10T05:09:06;102424.00;;;19.70
12918;BMP180;6526;54.312;13.092;2023-06-10T05:11:32;102436.00;;;19.80
12918;BMP180;6526;54.312;13.092;2023-06-10T05:13:58;102430.00;;;19.80
12918;BMP180;6526;54.312;13.092;2023-06-10T05:16:24;102443.00;;;19.80
12918;BMP180;6526;54.312;13.092;2023-06-10T05:18:50;102440.00;;;20.00
12918;BMP180;6526;54.312;13.092;2023-06-10T05:21:17;102437.00;;;20.00
12918;BMP180;6526;54.312;13.092;2023-06-10T05:23:43;102436.00;;;20.00
12918;BMP180;6526;54.312;13.092;2023-06-10T05:26:09;102446.00;;;20.10
12918;BMP180;6526;54.312;13.092;2023-06-10T05:28:36;102446.00;;;20.30
12918;BMP180;6526;54.312;13.092;2023-06-10T05:31:03;102447.00;;;20.40
12918;BMP180;6526;54.312;13.092;2023-06-10T05:33:29;102456.00;;;20.40
12918;BMP180;6526;54.312;13.092;2023-06-10T05:35:55;102438.00;;;20.50
12918;BMP180;6526;54.312;13.092;2023-06-10T05:38:21;102440.00;;;20.50
12918;BMP180;6526;54.312;13.092;2023-06-10T05:40:47;102439.00;;;20.50
12918;BMP180;6526;54.312;13.092;2023-06-10T05:43:13;102443.00;;;20.60
12918;BMP180;6526;54.312;13.092;2023-06-10T05:45:40;102453.00;;;20.60
12918;BMP180;6526;54.312;13.092;2023-06-10T05:48:06;102438.00;;;20.70
12918;BMP180;6526;54.312;13.092;2023-06-10T05:50:32;102440.00;;;20.90
12918;BMP180;6526;54.312;13.092;2023-06-10T05:53:04;102438.00;;;20.80
12918;BMP180;6526;54.312;13.092;2023-06-10T05:55:30;102442.00;;;20.80
12918;BMP180;6526;54.312;13.092;2023-06-10T05:57:59;102452.00;;;20.80
12918;BMP180;6526;54.312;13.092;2023-06-10T06:00:26;102450.00;;;20.80
12918;BMP180;6526;54.312;13.092;2023-06-10T06:02:53;102443.00;;;20.70
12918;BMP180;6526;54.312;13.092;2023-06-10T06:05:20;102450.00;;;20.70
12918;BMP180;6526;54.312;13.092;2023-06-10T06:07:46;102452.00;;;20.70
12918;BMP180;6526;54.312;13.092;2023-06-10T06:10:12;102453.00;;;20.80
12918;BMP180;6526;54.312;13.092;2023-06-10T06:12:38;102449.00;;;20.90
12918;BMP180;6526;54.312;13.092;2023-06-10T06:15:04;102450.00;;;21.00
12918;BMP180;6526;54.312;13.092;2023-06-10T06:17:30;102455.00;;;21.10
12918;BMP180;6526;54.312;13.092;2023-06-10T06:19:56;102458.00;;;21.20
12918;BMP180;6526;54.312;13.092;2023-06-10T06:22:22;102449.00;;;21.30
12918;BMP180;6526;54.312;13.092;2023-06-10T06:24:48;102458.00;;;21.30
12918;BMP180;6526;54.312;13.092;2023-06-10T06:27:15;102450.00;;;21.20
12918;BMP180;6526;54.312;13.092;2023-06-10T06:29:41;102442.00;;;21.30
12918;BMP180;6526;54.312;13.092;2023-06-10T06:32:07;102462.00;;;21.30
12918;BMP180;6526;54.312;13.092;2023-06-10T06:34:34;102458.00;;;21.30
12918;BMP180;6526;54.312;13.092;2023-06-10T06:37:00;102458.00;;;21.60
12918;BMP180;6526;54.312;13.092;2023-06-10T06:39:26;102461.00;;;21.80
12918;BMP180;6526;54.312;13.092;2023-06-10T06:41:53;102457.00;;;21.90
12918;BMP180;6526;54.312;13.092;2023-06-10T06:44:19;102456.00;;;22.00
12918;BMP180;6526;54.312;13.092;2023-06-10T06:46:45;102460.00;;;22.20
12918;BMP180;6526;54.312;13.092;2023-06-10T06:49:11;102452.00;;;22.30
12918;BMP180;6526;54.312;13.092;2023-06-10T06:51:37;102469.00;;;22.30
12918;BMP180;6526;54.312;13.092;2023-06-10T06:54:03;102472.00;;;22.40
12918;BMP180;6526;54.312;13.092;2023-06-10T06:56:31;102468.00;;;22.40
12918;BMP180;6526;54.312;13.092;2023-06-10T06:58:57;102459.00;;;22.40
12918;BMP180;6526;54.312;13.092;2023-06-10T07:01:23;102481.00;;;22.60
12918;BMP180;6526;54.312;13.092;2023-06-10T07:03:49;102471.00;;;22.60
12918;BMP180;6526;54.312;13.092;2023-06-10T07:06:15;102466.00;;;22.50
12918;BMP180;6526;54.312;13.092;2023-06-10T07:08:41;102470.00;;;22.60
12918;BMP180;6526;54.312;13.092;2023-06-10T07:11:08;102470.00;;;22.50
12918;BMP180;6526;54.312;13.092;2023-06-10T07:13:33;102477.00;;;22.70
12918;BMP180;6526;54.312;13.092;2023-06-10T07:16:00;102471.00;;;22.90
12918;BMP180;6526;54.312;13.092;2023-06-10T07:18:26;102474.00;;;23.10
12918;BMP180;6526;54.312;13.092;2023-06-10T07:20:52;102473.00;;;23.20
12918;BMP180;6526;54.312;13.092;2023-06-10T07:23:18;102481.00;;;23.20
12918;BMP180;6526;54.312;13.092;2023-06-10T07:25:44;102483.00;;;23.10
12918;BMP180;6526;54.312;13.092;2023-06-10T07:28:10;102486.00;;;23.10
12918;BMP180;6526;54.312;13.092;2023-06-10T07:30:36;102483.00;;;23.20
12918;BMP180;6526;54.312;13.092;2023-06-10T07:33:02;102487.00;;;23.40
12918;BMP180;6526;54.312;13.092;2023-06-10T07:35:28;102483.00;;;23.50
12918;BMP180;6526;54.312;13.092;2023-06-10T07:37:54;102479.00;;;23.60
12918;BMP180;6526;54.312;13.092;2023-06-10T07:40:20;102479.00;;;23.80
12918;BMP180;6526;54.312;13.092;2023-06-10T07:42:46;102480.00;;;23.90
12918;BMP180;6526;54.312;13.092;2023-06-10T07:45:12;102495.00;;;24.00
12918;BMP180;6526;54.312;13.092;2023-06-10T07:47:38;102481.00;;;24.10
12918;BMP180;6526;54.312;13.092;2023-06-10T07:50:05;102492.00;;;24.00
12918;BMP180;6526;54.312;13.092;2023-06-10T07:52:31;102492.00;;;24.10
12918;BMP180;6526;54.312;13.092;2023-06-10T07:54:57;102481.00;;;24.00
12918;BMP180;6526;54.312;13.092;2023-06-10T07:57:23;102486.00;;;23.90
12918;BMP180;6526;54.312;13.092;2023-06-10T07:59:49;102476.00;;;24.00
12918;BMP180;6526;54.312;13.092;2023-06-10T08:02:15;102485.00;;;24.20
12918;BMP180;6526;54.312;13.092;2023-06-10T08:04:41;102483.00;;;24.20
12918;BMP180;6526;54.312;13.092;2023-06-10T08:07:07;102489.00;;;24.20
12918;BMP180;6526;54.312;13.092;2023-06-10T08:09:33;102489.00;;;24.30
12918;BMP180;6526;54.312;13.092;2023-06-10T08:11:59;102486.00;;;24.50
12918;BMP180;6526;54.312;13.092;2023-06-10T08:14:25;102481.00;;;24.50
12918;BMP180;6526;54.312;13.092;2023-06-10T08:16:51;102486.00;;;24.50
12918;BMP180;6526;54.312;13.092;2023-06-10T08:19:17;102490.00;;;24.60
12918;BMP180;6526;54.312;13.092;2023-06-10T08:21:43;102498.00;;;24.60
12918;BMP180;6526;54.312;13.092;2023-06-10T08:24:10;102509.00;;;24.60
12918;BMP180;6526;54.312;13.092;2023-06-10T08:26:36;102515.00;;;24.60
12918;BMP180;6526;54.312;13.092;2023-06-10T08:29:02;102509.00;;;24.60
12918;BMP180;6526;54.312;13.092;2023-06-10T08:31:28;102500.00;;;24.70
12918;BMP180;6526;54.312;13.092;2023-06-10T08:33:54;102511.00;;;24.80
12918;BMP180;6526;54.312;13.092;2023-06-10T08:36:20;102494.00;;;25.00
12918;BMP180;6526;54.312;13.092;2023-06-10T08:38:46;102498.00;;;25.00
12918;BMP180;6526;54.312;13.092;2023-06-10T08:41:15;102509.00;;;25.20
12918;BMP180;6526;54.312;13.092;2023-06-10T08:46:31;102520.00;;;25.20
12918;BMP180;6526;54.312;13.092;2023-06-10T08:49:02;102517.00;;;25.30
12918;BMP180;6526;54.312;13.092;2023-06-10T08:51:30;102516.00;;;25.30
12918;BMP180;6526;54.312;13.092;2023-06-10T08:54:04;102515.00;;;25.30
12918;BMP180;6526;54.312;13.092;2023-06-10T08:56:33;102514.00;;;25.30
12918;BMP180;6526;54.312;13.092;2023-06-10T08:59:02;102520.00;;;25.30
12918;BMP180;6526;54.312;13.092;2023-06-10T09:01:29;102524.00;;;25.20
12918;BMP180;6526;54.312;13.092;2023-06-10T09:03:56;102522.00;;;25.20
12918;BMP180;6526;54.312;13.092;2023-06-10T09:06:23;102530.00;;;25.10
12918;BMP180;6526;54.312;13.092;2023-06-10T09:08:49;102531.00;;;25.20
12918;BMP180;6526;54.312;13.092;2023-06-10T09:11:15;102522.00;;;25.30
12918;BMP180;6526;54.312;13.092;2023-06-10T09:13:41;102520.00;;;25.40
12918;BMP180;6526;54.312;13.092;2023-06-10T09:16:07;102521.00;;;25.70
12918;BMP180;6526;54.312;13.092;2023-06-10T09:18:34;102525.00;;;25.80
12918;BMP180;6526;54.312;13.092;2023-06-10T09:21:00;102530.00;;;25.70
12918;BMP180;6526;54.312;13.092;2023-06-10T09:23:26;102523.00;;;25.60
12918;BMP180;6526;54.312;13.092;2023-06-10T09:25:57;102525.00;;;25.70
12918;BMP180;6526;54.312;13.092;2023-06-10T09:28:24;102531.00;;;25.70
12918;BMP180;6526;54.312;13.092;2023-06-10T09:30:52;102527.00;;;25.70
12918;BMP180;6526;54.312;13.092;2023-06-10T09:33:27;102534.00;;;25.70
12918;BMP180;6526;54.312;13.092;2023-06-10T09:35:53;102531.00;;;25.70
12918;BMP180;6526;54.312;13.092;2023-06-10T09:38:21;102534.00;;;25.80
12918;BMP180;6526;54.312;13.092;2023-06-10T09:40:52;102535.00;;;25.70
12918;BMP180;6526;54.312;13.092;2023-06-10T09:43:18;102534.00;;;25.70
12918;BMP180;6526;54.312;13.092;2023-06-10T09:45:47;102537.00;;;25.80
12918;BMP180;6526;54.312;13.092;2023-06-10T09:48:13;102535.00;;;26.00
12918;BMP180;6526;54.312;13.092;2023-06-10T09:50:43;102531.00;;;26.10
12918;BMP180;6526;54.312;13.092;2023-06-10T09:53:10;102527.00;;;26.20
12918;BMP180;6526;54.312;13.092;2023-06-10T09:55:40;102534.00;;;26.10
12918;BMP180;6526;54.312;13.092;2023-06-10T09:58:07;102530.00;;;26.20
12918;BMP180;6526;54.312;13.092;2023-06-10T10:00:34;102540.00;;;26.00
12918;BMP180;6526;54.312;13.092;2023-06-10T10:03:00;102533.00;;;26.10
12918;BMP180;6526;54.312;13.092;2023-06-10T10:05:27;102531.00;;;26.10
12918;BMP180;6526;54.312;13.092;2023-06-10T10:07:53;102540.00;;;25.90
12918;BMP180;6526;54.312;13.092;2023-06-10T10:10:22;102542.00;;;25.70
12918;BMP180;6526;54.312;13.092;2023-06-10T10:12:51;102544.00;;;25.80
12918;BMP180;6526;54.312;13.092;2023-06-10T10:15:18;102541.00;;;25.70
12918;BMP180;6526;54.312;13.092;2023-06-10T10:20:33;102546.00;;;25.80
12918;BMP180;6526;54.312;13.092;2023-06-10T10:23:01;102542.00;;;25.70
12918;BMP180;6526;54.312;13.092;2023-06-10T10:25:37;102538.00;;;25.70
12918;BMP180;6526;54.312;13.092;2023-06-10T10:28:13;102547.00;;;25.80
12918;BMP180;6526;54.312;13.092;2023-06-10T10:30:45;102545.00;;;25.80
12918;BMP180;6526;54.312;13.092;2023-06-10T10:33:32;102552.00;;;25.70
12918;BMP180;6526;54.312;13.092;2023-06-10T10:36:01;102538.00;;;25.70
12918;BMP180;6526;54.312;13.092;2023-06-10T10:38:28;102546.00;;;25.80
12918;BMP180;6526;54.312;13.092;2023-06-10T10:40:55;102549.00;;;26.00
12918;BMP180;6526;54.312;13.092;2023-06-10T10:43:25;102549.00;;;26.20
12918;BMP180;6526;54.312;13.092;2023-06-10T10:46:02;102544.00;;;26.40
12918;BMP180;6526;54.312;13.092;2023-06-10T10:48:38;102550.00;;;26.50
12918;BMP180;6526;54.312;13.092;2023-06-10T10:51:04;102539.00;;;26.30
12918;BMP180;6526;54.312;13.092;2023-06-10T10:53:30;102541.00;;;26.40
12918;BMP180;6526;54.312;13.092;2023-06-10T10:56:13;102541.00;;;26.60
12918;BMP180;6526;54.312;13.092;2023-06-10T10:58:40;102535.00;;;26.60
12918;BMP180;6526;54.312;13.092;2023-06-10T11:01:13;102544.00;;;26.60
12918;BMP180;6526;54.312;13.092;2023-06-10T11:03:47;102543.00;;;26.40
12918;BMP180;6526;54.312;13.092;2023-06-10T11:06:16;102539.00;;;26.40
12918;BMP180;6526;54.312;13.092;2023-06-10T11:11:20;102543.00;;;26.50
12918;BMP180;6526;54.312;13.092;2023-06-10T11:16:30;102540.00;;;26.40
12918;BMP180;6526;54.312;13.092;2023-06-10T11:19:03;102550.00;;;26.30
12918;BMP180;6526;54.312;13.092;2023-06-10T11:21:30;102553.00;;;26.30
12918;BMP180;6526;54.312;13.092;2023-06-10T11:23:58;102542.00;;;26.40
12918;BMP180;6526;54.312;13.092;2023-06-10T11:33:59;102548.00;;;26.40
12918;BMP180;6526;54.312;13.092;2023-06-10T11:36:26;102546.00;;;26.30
12918;BMP180;6526;54.312;13.092;2023-06-10T11:38:58;102539.00;;;26.40
12918;BMP180;6526;54.312;13.092;2023-06-10T11:41:25;102537.00;;;26.50
12918;BMP180;6526;54.312;13.092;2023-06-10T11:43:53;102552.00;;;26.70
12918;BMP180;6526;54.312;13.092;2023-06-10T11:46:21;102533.00;;;26.50
12918;BMP180;6526;54.312;13.092;2023-06-10T11:48:56;102542.00;;;26.40
12918;BMP180;6526;54.312;13.092;2023-06-10T11:51:25;102541.00;;;26.30
12918;BMP180;6526;54.312;13.092;2023-06-10T11:53:53;102532.00;;;26.40
12918;BMP180;6526;54.312;13.092;2023-06-10T11:56:26;102534.00;;;26.40
12918;BMP180;6526;54.312;13.092;2023-06-10T12:01:24;102535.00;;;26.20
12918;BMP180;6526;54.312;13.092;2023-06-10T12:04:06;102543.00;;;26.20
12918;BMP180;6526;54.312;13.092;2023-06-10T12:06:43;102539.00;;;26.20
12918;BMP180;6526;54.312;13.092;2023-06-10T12:09:27;102540.00;;;26.20
12918;BMP180;6526;54.312;13.092;2023-06-10T12:14:50;102552.00;;;26.50
12918;BMP180;6526;54.312;13.092;2023-06-10T12:17:21;102549.00;;;26.60
12918;BMP180;6526;54.312;13.092;2023-06-10T12:19:49;102548.00;;;26.50
12918;BMP180;6526;54.312;13.092;2023-06-10T12:22:15;102543.00;;;26.40
12918;BMP180;6526;54.312;13.092;2023-06-10T12:24:46;102551.00;;;26.20
12918;BMP180;6526;54.312;13.092;2023-06-10T12:27:22;102552.00;;;26.30
12918;BMP180;6526;54.312;13.092;2023-06-10T12:29:52;102552.00;;;26.40
12918;BMP180;6526;54.312;13.092;2023-06-10T12:32:21;102546.00;;;26.30
12918;BMP180;6526;54.312;13.092;2023-06-10T12:35:05;102544.00;;;26.30
12918;BMP180;6526;54.312;13.092;2023-06-10T12:37:31;102548.00;;;26.40
12918;BMP180;6526;54.312;13.092;2023-06-10T12:40:05;102534.00;;;26.50
12918;BMP180;6526;54.312;13.092;2023-06-10T12:42:32;102543.00;;;26.50
12918;BMP180;6526;54.312;13.092;2023-06-10T12:45:01;102544.00;;;26.40
12918;BMP180;6526;54.312;13.092;2023-06-10T12:47:35;102536.00;;;26.50
12918;BMP180;6526;54.312;13.092;2023-06-10T12:50:02;102543.00;;;26.60
12918;BMP180;6526;54.312;13.092;2023-06-10T12:52:29;102541.00;;;26.70
12918;BMP180;6526;54.312;13.092;2023-06-10T12:54:55;102535.00;;;26.70
12918;BMP180;6526;54.312;13.092;2023-06-10T12:57:22;102542.00;;;26.80
12918;BMP180;6526;54.312;13.092;2023-06-10T12:59:48;102535.00;;;26.80
12918;BMP180;6526;54.312;13.092;2023-06-10T13:02:23;102533.00;;;26.80
12918;BMP180;6526;54.312;13.092;2023-06-10T13:04:50;102544.00;;;26.70
12918;BMP180;6526;54.312;13.092;2023-06-10T13:07:17;102540.00;;;26.60
12918;BMP180;6526;54.312;13.092;2023-06-10T13:09:44;102540.00;;;26.60
12918;BMP180;6526;54.312;13.092;2023-06-10T13:12:10;102544.00;;;26.60
12918;BMP180;6526;54.312;13.092;2023-06-10T13:14:37;102551.00;;;26.60
12918;BMP180;6526;54.312;13.092;2023-06-10T13:17:04;102544.00;;;26.70
12918;BMP180;6526;54.312;13.092;2023-06-10T13:19:35;102542.00;;;26.60
12918;BMP180;6526;54.312;13.092;2023-06-10T13:22:01;102530.00;;;26.40
12918;BMP180;6526;54.312;13.092;2023-06-10T13:24:27;102538.00;;;26.40
12918;BMP180;6526;54.312;13.092;2023-06-10T13:26:54;102539.00;;;26.50
12918;BMP180;6526;54.312;13.092;2023-06-10T13:29:21;102542.00;;;26.50
12918;BMP180;6526;54.312;13.092;2023-06-10T13:31:47;102540.00;;;26.60
12918;BMP180;6526;54.312;13.092;2023-06-10T13:34:13;102550.00;;;26.50
12918;BMP180;6526;54.312;13.092;2023-06-10T13:36:39;102543.00;;;26.50
12918;BMP180;6526;54.312;13.092;2023-06-10T13:39:05;102537.00;;;26.50
12918;BMP180;6526;54.312;13.092;2023-06-10T13:41:31;102538.00;;;26.60
12918;BMP180;6526;54.312;13.092;2023-06-10T13:43:57;102544.00;;;26.40
12918;BMP180;6526;54.312;13.092;2023-06-10T13:46:23;102535.00;;;26.40
12918;BMP180;6526;54.312;13.092;2023-06-10T13:48:49;102541.00;;;26.40
12918;BMP180;6526;54.312;13.092;2023-06-10T13:51:15;102542.00;;;26.30
12918;BMP180;6526;54.312;13.092;2023-06-10T13:53:41;102543.00;;;26.20
12918;BMP180;6526;54.312;13.092;2023-06-10T13:56:08;102532.00;;;26.20
12918;BMP180;6526;54.312;13.092;2023-06-10T13:58:34;102538.00;;;26.20
12918;BMP180;6526;54.312;13.092;2023-06-10T14:01:05;102542.00;;;26.10
12918;BMP180;6526;54.312;13.092;2023-06-10T14:03:31;102542.00;;;26.20
12918;BMP180;6526;54.312;13.092;2023-06-10T14:05:57;102537.00;;;26.00
12918;BMP180;6526;54.312;13.092;2023-06-10T14:08:23;102542.00;;;26.00
12918;BMP180;6526;54.312;13.092;2023-06-10T14:10:49;102532.00;;;26.00
12918;BMP180;6526;54.312;13.092;2023-06-10T14:13:17;102538.00;;;25.90
12918;BMP180;6526;54.312;13.092;2023-06-10T14:15:43;102542.00;;;25.80
12918;BMP180;6526;54.312;13.092;2023-06-10T14:18:09;102541.00;;;25.60
12918;BMP180;6526;54.312;13.092;2023-06-10T14:20:35;102554.00;;;25.60
12918;BMP180;6526;54.312;13.092;2023-06-10T14:23:02;102536.00;;;25.60
12918;BMP180;6526;54.312;13.092;2023-06-10T14:25:28;102552.00;;;25.60